• Join FlightAware (Why Join?)
  • Login
  • US Flag 
01:06AM EDT


 

Airport Tracker/Info


-or-


 

Live Flight TrackerFlight Track Log ✈ UCA3598 ✈ 14-Nov-2013 ✈ KIAD - KBGM

Flight Track Log - Related Links

Times and Time Zones

All times are in EST time to prevent confusion due to time zone crossing. See the UCA3598 flight status page for this flight to view local times or setup timezone preferences in your user account.

Time Position Orientation Groundspeed Altitude Reporting Facility
EST Latitude Longitude Course Direction KTS MPH feet Rate Location/Type
10:19PM 38.9617 -77.5672 North 138 159 3,600  Level Washington Center
10:19PM 38.9714 -77.6208 283° West 154 177 5,400 1,680 Climbing Washington Center
10:20PM 39.0039 -77.6617 316° Northwest 154 177 7,000 1,320 Climbing Washington Center
10:22PM 39.0536 -77.6844 340° North 171 197 8,100 1,320 Climbing Washington Center
10:23PM 39.2713 -77.3195 North  Level Estimated
10:23PM 39.1122 -77.6675 13° North 189 217 9,700  Level Washington Center
10:23PM 39.1686 -77.6583 North 201 231 11,000 600 Climbing Washington Center
10:25PM 39.2356 -77.6469 North 217 250 11,000 300 Level Washington Center
10:25PM 39.3089 -77.6356 North 243 280 11,600 1,140 Climbing Washington Center
10:27PM 39.3719 -77.6025 22° Northeast 250 288 13,300 1,380 Climbing Washington Center
10:28PM 39.4308 -77.5692 24° Northeast 237 273 14,500 1,140 Climbing Washington Center
10:29PM 39.4917 -77.5358 23° Northeast 232 267 15,700 1,140 Climbing Washington Center
10:30PM 39.5953 -77.4800 23° Northeast 248 285 17,500 960 Climbing New York Center
10:31PM 39.6594 -77.4511 19° North 254 292 18,200 720 Climbing New York Center
10:32PM 39.7261 -77.4519 359° North 236 272 19,000 360 Climbing New York Center
10:33PM 39.7992 -77.4508 North 249 287 19,000  Level New York Center
10:34PM 39.8806 -77.4503 360° North 281 323 19,000  Level New York Center
10:35PM 39.9619 -77.4500 360° North 287 330 19,000  Level New York Center
10:36PM 40.0369 -77.4492 360° North 292 336 19,000  Level New York Center
10:37PM 40.1269 -77.4442 North 292 336 19,000  Level New York Center
10:38PM 40.1939 -77.4044 24° Northeast 292 336 19,000  Level New York Center
10:39PM 40.2783 -77.3497 26° Northeast 300 345 19,000  Level New York Center
10:40PM 40.3472 -77.3075 25° Northeast 300 345 19,000  Level New York Center
10:41PM 40.4314 -77.2553 25° Northeast 300 345 19,000  Level New York Center
10:42PM 40.5006 -77.2100 26° Northeast 300 345 19,000  Level New York Center
10:43PM 40.5847 -77.1578 25° Northeast 300 345 19,000  Level New York Center
10:44PM 40.6539 -77.1147 25° Northeast 306 352 19,000  Level New York Center
10:45PM 40.7336 -77.0647 25° Northeast 306 352 19,000  Level New York Center
10:46PM 40.8092 -77.0167 26° Northeast 306 352 19,000  Level New York Center
10:47PM 40.8931 -76.9642 25° Northeast 306 352 19,000  Level New York Center
10:48PM 40.9600 -76.9206 26° Northeast 306 352 19,000  Level New York Center
10:49PM 41.0375 -76.8725 25° Northeast 301 346 19,000  Level New York Center
10:50PM 41.1150 -76.8217 26° Northeast 301 346 19,000  Level New York Center
10:51PM 41.1925 -76.7736 25° Northeast 301 346 19,000  Level New York Center
10:52PM 41.2703 -76.7225 26° Northeast 301 346 19,000  Level New York Center
10:53PM 41.3458 -76.6683 28° Northeast 301 346 19,000  Level New York Center
10:54PM 41.4294 -76.6175 25° Northeast 306 352 19,000 -360 Level New York Center
10:55PM 41.5069 -76.5661 26° Northeast 306 352 18,300 -1,260 Descending New York Center
10:56PM 41.5886 -76.5150 25° Northeast 317 365 16,500 -1,860 Descending New York Center
10:57PM 41.6597 -76.4656 27° Northeast 323 372 14,600 -2,100 Descending New York Center
10:58PM 41.7356 -76.4081 29° Northeast 317 365 12,400 -2,580 Descending New York Center
10:59PM 41.8117 -76.3394 34° Northeast 305 351 9,500 -2,280 Descending New York Center
11:00PM 41.8767 -76.2836 33° Northeast 286 329 7,900 -1,560 Descending New York Center
11:01PM 41.9397 -76.2247 35° Northeast 280 322 6,400 -1,500 Descending New York Center
11:02PM 41.9983 -76.1736 33° Northeast 273 314 5,000 -1,500 Descending New York Center
11:03PM 42.0656 -76.1119 34° Northeast 272 313 3,400 -900 Descending New York Center
11:04PM 42.1236 -76.0719 27° Northeast 256 295 3,200 2,760 Descending New York Center
11:05PM 42.1753 -76.0342 28° Northeast 232 267 9,000 -480 Climbing New York Center
11:06PM 42.2178 -76.0153 18° North 190 219 2,300 -3,540 Descending New York Center
11:07PM 42.2583 -75.9933 22° Northeast 174 200 2,000 3,300 Descending New York Center
11:08PM 42.3008 -75.9686 23° Northeast 174 200 9,000 3,480 Climbing New York Center
11:09PM 42.3436 -75.9439 23° Northeast 174 200 9,000  Level New York Center
11:10PM 42.3864 -75.9192 23° Northeast 174 200 9,000  Level New York Center
11:11PM 42.4119 -75.9044 23° Northeast 174 200 9,000  Level New York Center